Flight Track Log - Related Links

Times and Time Zones

All times are in EDT time to prevent confusion due to time zone crossing. See the N45TP flight status page for this flight to view local times or setup timezone preferences in your user account.

Time Position Orientation Groundspeed Altitude Reporting Facility
EDT Latitude Longitude Course Direction KTS MPH feet Rate Location/Type
Mon 04:24:10 PM 28.4333 -81.3333 139° Southeast 182 209 500  Level Orlando TRACON
Mon 04:24:47 PM 28.4000 -81.3000 139° Southeast 229 264 2,200 2,845 Climbing Orlando TRACON
Mon 04:25:47 PM 28.3667 -81.2500 127° Southeast 247 284 5,100 3,014 Climbing Orlando TRACON
Mon 04:28:18 PM 28.5114 -81.1397 34° Northeast 275 316 12,800 2,986 Climbing Jacksonville Center
Mon 04:29:18 PM 28.5869 -81.1714 340° North 255 293 15,600 2,450 Climbing Jacksonville Center
Mon 04:30:18 PM 28.6647 -81.2128 335° Northwest 267 307 17,700 1,700 Climbing Jacksonville Center
Mon 04:31:18 PM 28.7508 -81.2539 337° Northwest 304 350 19,000 600 Climbing Jacksonville Center
Mon 04:32:18 PM 28.8475 -81.2997 337° Northwest 344 396 18,900  Descending Jacksonville Center
Mon 04:33:19 PM 28.9461 -81.3525 335° Northwest 371 427 19,000 50 Climbing Jacksonville Center
Mon 04:34:18 PM 29.0389 -81.4153 329° Northwest 382 440 19,000  Level Jacksonville Center
Mon 04:35:18 PM 29.1356 -81.4733 332° Northwest 388 447 19,000 50 Level Jacksonville Center
Mon 04:36:18 PM 29.2364 -81.5386 331° Northwest 388 447 19,100  Climbing Jacksonville Center
Mon 04:37:18 PM 29.3289 -81.5967 331° Northwest 383 441 19,000 -76 Descending Jacksonville Center
Mon 04:37:37 PM 29.3539 -81.6083 338° Northwest 372 428 19,000 -600 Level Jacksonville Center
Mon 04:38:18 PM 29.4314 -81.6192 353° North 365 420 18,400 -985 Descending Jacksonville Center
Mon 04:38:44 PM 29.4731 -81.6186 North 378 435 17,900 -1,100 Descending Jacksonville Center
Mon 04:39:18 PM 29.5336 -81.6250 355° North 365 420 17,300 -1,377 Descending Jacksonville Center
Mon 04:39:45 PM 29.5817 -81.6269 358° North 372 428 16,500 -1,600 Descending Jacksonville Center
Mon 04:40:18 PM 29.6339 -81.6311 356° North 365 420 15,700 -1,475 Descending Jacksonville Center
Mon 04:40:46 PM 29.6819 -81.6328 358° North 355 409 15,000 -1,500 Descending Jacksonville Center
Mon 04:41:18 PM 29.7300 -81.6369 356° North 365 420 14,200 -1,636 Descending Jacksonville Center
Mon 04:41:41 PM 29.7719 -81.6436 352° North 349 402 13,500 -2,000 Descending Jacksonville Center
Mon 04:42:18 PM 29.8203 -81.6717 333° Northwest 350 403 12,200 -2,066 Descending Jacksonville Center
Mon 04:42:42 PM 29.8558 -81.6928 333° Northwest 334 384 11,400 -2,000 Descending Jacksonville Center
Mon 04:43:18 PM 29.9019 -81.7186 334° Northwest 337 388 10,200 -1,869 Descending Jacksonville Center
Mon 04:43:43 PM 29.9336 -81.7372 333° Northwest 307 353 9,500 -1,800 Descending Jacksonville Center
Mon 04:44:18 PM 29.9775 -81.7511 345° North 311 358 8,400 -1,791 Descending Jacksonville Center
Mon 04:44:50 PM 30.0153 -81.7650 342° North 288 331 7,500 -1,900 Descending Jacksonville Center
Mon 04:45:18 PM 30.0550 -81.7767 346° North 294 338 6,500 -1,600 Descending Jacksonville Center
Mon 04:45:50 PM 30.0969 -81.7906 344° North 284 327 5,900 -1,000 Descending Jacksonville Center
Mon 04:46:18 PM 30.1303 -81.7997 347° North 283 326 5,500 -689 Descending Jacksonville Center
Mon 04:46:51 PM 30.1722 -81.8042 355° North 262 302 5,200 -500 Descending Jacksonville Center
Mon 04:47:18 PM 30.2033 -81.8014 North 276 318 5,000 -245 Descending Jacksonville Center
Mon 04:47:40 PM 30.2306 -81.8036 356° North 259 298 5,000 -539 Level Jacksonville Center
Mon 04:48:47 PM 30.3142 -81.8025 North 282 325 4,200 -1,031 Descending Jacksonville Center
Mon 04:49:48 PM 30.3892 -81.8017 North 256 295 2,800 -1,293 Descending Jacksonville Center
Mon 04:50:43 PM 30.4497 -81.7914 North 235 270 1,700 -992 Descending Jacksonville Center
Mon 04:51:49 PM 30.4806 -81.7453 52° Northeast 146 168 800 -709 Descending Jacksonville Center
Mon 04:52:50 PM 30.4908 -81.7114 71° East 101 116 200 -590 Descending Jacksonville Center
Mon 04:54:00 PM 30.4941 -81.6878 81° East  Level Estimated
Mon 05:01:00 PM 30.4941 -81.6878 213° Southwest  Level Estimated

Login

Don't have an account? Register now (free) for customized features, flight alerts, and more!